sensor_id;sensor_type;location;lat;lon;timestamp;P1;durP1;ratioP1;P2;durP2;ratioP2
51036;SDS011;37064;59.346;18.058;2023-04-25T00:01:40;3.08;;;1.80;;
51036;SDS011;37064;59.346;18.058;2023-04-25T00:04:06;5.47;;;2.35;;
51036;SDS011;37064;59.346;18.058;2023-04-25T00:06:34;6.53;;;2.30;;
51036;SDS011;37064;59.346;18.058;2023-04-25T00:09:01;2.72;;;2.08;;
51036;SDS011;37064;59.346;18.058;2023-04-25T00:11:28;3.58;;;2.08;;
51036;SDS011;37064;59.346;18.058;2023-04-25T00:13:56;2.88;;;1.80;;
51036;SDS011;37064;59.346;18.058;2023-04-25T00:16:22;6.60;;;2.00;;
51036;SDS011;37064;59.346;18.058;2023-04-25T00:18:48;4.78;;;2.53;;
51036;SDS011;37064;59.346;18.058;2023-04-25T00:21:18;2.63;;;1.67;;
51036;SDS011;37064;59.346;18.058;2023-04-25T00:23:45;5.80;;;2.63;;
51036;SDS011;37064;59.346;18.058;2023-04-25T00:26:11;9.45;;;2.50;;
51036;SDS011;37064;59.346;18.058;2023-04-25T00:28:37;4.78;;;2.42;;
51036;SDS011;37064;59.346;18.058;2023-04-25T00:31:03;3.38;;;2.20;;
51036;SDS011;37064;59.346;18.058;2023-04-25T00:33:29;5.75;;;2.42;;
51036;SDS011;37064;59.346;18.058;2023-04-25T00:35:55;3.42;;;2.00;;
51036;SDS011;37064;59.346;18.058;2023-04-25T00:38:21;2.75;;;1.88;;
51036;SDS011;37064;59.346;18.058;2023-04-25T00:40:47;2.95;;;2.00;;
51036;SDS011;37064;59.346;18.058;2023-04-25T00:43:13;2.70;;;2.08;;
51036;SDS011;37064;59.346;18.058;2023-04-25T00:45:39;3.67;;;2.10;;
51036;SDS011;37064;59.346;18.058;2023-04-25T00:48:06;4.50;;;2.00;;
51036;SDS011;37064;59.346;18.058;2023-04-25T00:50:33;5.45;;;2.55;;
51036;SDS011;37064;59.346;18.058;2023-04-25T00:52:59;2.50;;;1.88;;
51036;SDS011;37064;59.346;18.058;2023-04-25T00:55:26;3.05;;;1.80;;
51036;SDS011;37064;59.346;18.058;2023-04-25T00:57:52;4.07;;;2.08;;
51036;SDS011;37064;59.346;18.058;2023-04-25T01:00:20;2.95;;;1.67;;
51036;SDS011;37064;59.346;18.058;2023-04-25T01:02:46;3.55;;;1.58;;
51036;SDS011;37064;59.346;18.058;2023-04-25T01:05:12;9.25;;;2.65;;
51036;SDS011;37064;59.346;18.058;2023-04-25T01:07:38;3.08;;;2.08;;
51036;SDS011;37064;59.346;18.058;2023-04-25T01:10:05;4.72;;;2.13;;
51036;SDS011;37064;59.346;18.058;2023-04-25T01:12:32;5.63;;;2.10;;
51036;SDS011;37064;59.346;18.058;2023-04-25T01:14:58;5.82;;;1.65;;
51036;SDS011;37064;59.346;18.058;2023-04-25T01:17:24;5.50;;;1.98;;
51036;SDS011;37064;59.346;18.058;2023-04-25T01:19:50;6.75;;;1.98;;
51036;SDS011;37064;59.346;18.058;2023-04-25T01:22:16;10.95;;;2.00;;
51036;SDS011;37064;59.346;18.058;2023-04-25T01:24:43;3.25;;;1.67;;
51036;SDS011;37064;59.346;18.058;2023-04-25T01:27:09;2.95;;;1.50;;
51036;SDS011;37064;59.346;18.058;2023-04-25T01:29:35;4.25;;;1.80;;
51036;SDS011;37064;59.346;18.058;2023-04-25T01:32:02;3.50;;;2.20;;
51036;SDS011;37064;59.346;18.058;2023-04-25T01:34:28;5.03;;;1.65;;
51036;SDS011;37064;59.346;18.058;2023-04-25T01:36:54;4.40;;;2.63;;
51036;SDS011;37064;59.346;18.058;2023-04-25T01:39:20;4.75;;;1.60;;
51036;SDS011;37064;59.346;18.058;2023-04-25T01:41:46;2.22;;;1.40;;
51036;SDS011;37064;59.346;18.058;2023-04-25T01:44:12;3.40;;;1.83;;
51036;SDS011;37064;59.346;18.058;2023-04-25T01:46:39;4.25;;;1.98;;
51036;SDS011;37064;59.346;18.058;2023-04-25T01:49:05;5.95;;;2.75;;
51036;SDS011;37064;59.346;18.058;2023-04-25T01:51:31;4.60;;;1.58;;
51036;SDS011;37064;59.346;18.058;2023-04-25T01:53:57;3.33;;;1.60;;
51036;SDS011;37064;59.346;18.058;2023-04-25T01:56:23;2.58;;;1.40;;
51036;SDS011;37064;59.346;18.058;2023-04-25T01:58:49;4.05;;;1.80;;
51036;SDS011;37064;59.346;18.058;2023-04-25T02:01:16;6.07;;;1.73;;
51036;SDS011;37064;59.346;18.058;2023-04-25T02:03:42;4.50;;;1.60;;
51036;SDS011;37064;59.346;18.058;2023-04-25T02:06:09;2.40;;;1.30;;
51036;SDS011;37064;59.346;18.058;2023-04-25T02:08:35;3.20;;;1.50;;
51036;SDS011;37064;59.346;18.058;2023-04-25T02:11:02;2.88;;;1.20;;
51036;SDS011;37064;59.346;18.058;2023-04-25T02:13:28;2.33;;;1.50;;
51036;SDS011;37064;59.346;18.058;2023-04-25T02:15:54;2.70;;;1.27;;
51036;SDS011;37064;59.346;18.058;2023-04-25T02:18:20;3.80;;;1.08;;
51036;SDS011;37064;59.346;18.058;2023-04-25T02:20:46;3.08;;;1.27;;
51036;SDS011;37064;59.346;18.058;2023-04-25T02:23:12;2.00;;;1.20;;
51036;SDS011;37064;59.346;18.058;2023-04-25T02:25:40;1.70;;;0.95;;
51036;SDS011;37064;59.346;18.058;2023-04-25T02:28:06;5.20;;;1.45;;
51036;SDS011;37064;59.346;18.058;2023-04-25T02:30:32;1.40;;;0.90;;
51036;SDS011;37064;59.346;18.058;2023-04-25T02:32:58;1.33;;;0.98;;
51036;SDS011;37064;59.346;18.058;2023-04-25T02:35:24;2.25;;;1.65;;
51036;SDS011;37064;59.346;18.058;2023-04-25T02:37:50;1.50;;;0.82;;
51036;SDS011;37064;59.346;18.058;2023-04-25T02:40:16;1.63;;;1.30;;
51036;SDS011;37064;59.346;18.058;2023-04-25T02:42:42;1.67;;;0.90;;
51036;SDS011;37064;59.346;18.058;2023-04-25T02:45:10;2.33;;;0.90;;
51036;SDS011;37064;59.346;18.058;2023-04-25T02:47:36;1.10;;;0.82;;
51036;SDS011;37064;59.346;18.058;2023-04-25T02:50:03;2.78;;;0.90;;
51036;SDS011;37064;59.346;18.058;2023-04-25T02:52:29;2.13;;;0.85;;
51036;SDS011;37064;59.346;18.058;2023-04-25T02:54:55;1.20;;;0.85;;
51036;SDS011;37064;59.346;18.058;2023-04-25T02:57:21;1.65;;;0.70;;
51036;SDS011;37064;59.346;18.058;2023-04-25T02:59:47;1.25;;;0.85;;
51036;SDS011;37064;59.346;18.058;2023-04-25T03:02:13;2.03;;;0.60;;
51036;SDS011;37064;59.346;18.058;2023-04-25T03:04:39;0.80;;;0.60;;
51036;SDS011;37064;59.346;18.058;2023-04-25T03:07:05;1.20;;;0.80;;
51036;SDS011;37064;59.346;18.058;2023-04-25T03:09:31;1.60;;;0.93;;
51036;SDS011;37064;59.346;18.058;2023-04-25T03:11:57;1.05;;;0.93;;
51036;SDS011;37064;59.346;18.058;2023-04-25T03:14:23;1.20;;;0.90;;
51036;SDS011;37064;59.346;18.058;2023-04-25T03:16:49;0.95;;;0.70;;
51036;SDS011;37064;59.346;18.058;2023-04-25T03:19:15;1.10;;;0.70;;
51036;SDS011;37064;59.346;18.058;2023-04-25T03:21:42;0.98;;;0.75;;
51036;SDS011;37064;59.346;18.058;2023-04-25T03:24:08;1.02;;;0.93;;
51036;SDS011;37064;59.346;18.058;2023-04-25T03:26:35;1.00;;;0.75;;
51036;SDS011;37064;59.346;18.058;2023-04-25T03:29:02;1.38;;;0.80;;
51036;SDS011;37064;59.346;18.058;2023-04-25T03:31:28;2.42;;;0.70;;
51036;SDS011;37064;59.346;18.058;2023-04-25T03:33:54;1.48;;;0.88;;
51036;SDS011;37064;59.346;18.058;2023-04-25T03:36:20;1.17;;;0.73;;
51036;SDS011;37064;59.346;18.058;2023-04-25T03:38:46;1.27;;;0.80;;
51036;SDS011;37064;59.346;18.058;2023-04-25T03:41:13;1.17;;;0.70;;
51036;SDS011;37064;59.346;18.058;2023-04-25T03:43:39;1.27;;;0.70;;
51036;SDS011;37064;59.346;18.058;2023-04-25T03:46:05;0.90;;;0.65;;
51036;SDS011;37064;59.346;18.058;2023-04-25T03:48:31;1.23;;;0.55;;
51036;SDS011;37064;59.346;18.058;2023-04-25T03:50:57;0.75;;;0.68;;
51036;SDS011;37064;59.346;18.058;2023-04-25T03:53:23;0.85;;;0.50;;
51036;SDS011;37064;59.346;18.058;2023-04-25T03:55:49;0.70;;;0.50;;
51036;SDS011;37064;59.346;18.058;2023-04-25T03:58:15;1.13;;;0.75;;
51036;SDS011;37064;59.346;18.058;2023-04-25T04:00:41;2.33;;;0.80;;
51036;SDS011;37064;59.346;18.058;2023-04-25T04:03:07;1.15;;;0.70;;
51036;SDS011;37064;59.346;18.058;2023-04-25T04:05:33;0.98;;;0.80;;
51036;SDS011;37064;59.346;18.058;2023-04-25T04:07:59;1.30;;;0.80;;
51036;SDS011;37064;59.346;18.058;2023-04-25T04:10:25;0.82;;;0.68;;
51036;SDS011;37064;59.346;18.058;2023-04-25T04:12:51;1.00;;;0.70;;
51036;SDS011;37064;59.346;18.058;2023-04-25T04:15:17;0.60;;;0.57;;
51036;SDS011;37064;59.346;18.058;2023-04-25T04:17:43;5.38;;;1.08;;
51036;SDS011;37064;59.346;18.058;2023-04-25T04:20:10;1.15;;;0.85;;
51036;SDS011;37064;59.346;18.058;2023-04-25T04:22:36;1.15;;;0.90;;
51036;SDS011;37064;59.346;18.058;2023-04-25T04:25:02;2.25;;;1.02;;
51036;SDS011;37064;59.346;18.058;2023-04-25T04:27:29;1.38;;;0.80;;
51036;SDS011;37064;59.346;18.058;2023-04-25T04:29:55;1.80;;;0.90;;
51036;SDS011;37064;59.346;18.058;2023-04-25T04:32:22;2.85;;;1.02;;
51036;SDS011;37064;59.346;18.058;2023-04-25T04:34:49;4.10;;;0.93;;
51036;SDS011;37064;59.346;18.058;2023-04-25T04:37:14;1.73;;;0.98;;
51036;SDS011;37064;59.346;18.058;2023-04-25T04:39:41;3.65;;;1.60;;
51036;SDS011;37064;59.346;18.058;2023-04-25T04:42:07;4.05;;;1.23;;
51036;SDS011;37064;59.346;18.058;2023-04-25T04:44:33;1.52;;;0.98;;
51036;SDS011;37064;59.346;18.058;2023-04-25T04:47:00;1.95;;;1.25;;
51036;SDS011;37064;59.346;18.058;2023-04-25T04:49:26;2.28;;;1.25;;
51036;SDS011;37064;59.346;18.058;2023-04-25T04:51:52;1.80;;;1.30;;
51036;SDS011;37064;59.346;18.058;2023-04-25T04:54:19;2.20;;;1.38;;
51036;SDS011;37064;59.346;18.058;2023-04-25T04:56:45;3.20;;;1.23;;
51036;SDS011;37064;59.346;18.058;2023-04-25T04:59:11;3.97;;;1.65;;
51036;SDS011;37064;59.346;18.058;2023-04-25T05:01:37;2.65;;;1.50;;
51036;SDS011;37064;59.346;18.058;2023-04-25T05:04:03;2.65;;;1.67;;
51036;SDS011;37064;59.346;18.058;2023-04-25T05:06:29;2.60;;;1.55;;
51036;SDS011;37064;59.346;18.058;2023-04-25T05:08:56;2.38;;;1.40;;
51036;SDS011;37064;59.346;18.058;2023-04-25T05:11:22;4.43;;;1.70;;
51036;SDS011;37064;59.346;18.058;2023-04-25T05:13:51;3.97;;;2.28;;
51036;SDS011;37064;59.346;18.058;2023-04-25T05:16:18;4.07;;;1.77;;
51036;SDS011;37064;59.346;18.058;2023-04-25T05:18:44;3.92;;;2.28;;
51036;SDS011;37064;59.346;18.058;2023-04-25T05:21:10;5.70;;;2.35;;
51036;SDS011;37064;59.346;18.058;2023-04-25T05:23:36;4.80;;;2.05;;
51036;SDS011;37064;59.346;18.058;2023-04-25T05:26:02;4.00;;;1.75;;
51036;SDS011;37064;59.346;18.058;2023-04-25T05:28:28;4.60;;;1.90;;
51036;SDS011;37064;59.346;18.058;2023-04-25T05:30:54;6.10;;;2.13;;
51036;SDS011;37064;59.346;18.058;2023-04-25T05:33:20;7.13;;;2.30;;
51036;SDS011;37064;59.346;18.058;2023-04-25T05:35:46;3.15;;;2.00;;
51036;SDS011;37064;59.346;18.058;2023-04-25T05:38:12;5.78;;;2.15;;
51036;SDS011;37064;59.346;18.058;2023-04-25T05:40:38;3.60;;;1.80;;
51036;SDS011;37064;59.346;18.058;2023-04-25T05:43:04;4.07;;;2.15;;
51036;SDS011;37064;59.346;18.058;2023-04-25T05:45:30;2.53;;;1.63;;
51036;SDS011;37064;59.346;18.058;2023-04-25T05:47:56;4.32;;;2.42;;
51036;SDS011;37064;59.346;18.058;2023-04-25T05:50:22;8.13;;;2.13;;
51036;SDS011;37064;59.346;18.058;2023-04-25T05:52:48;3.80;;;2.10;;
51036;SDS011;37064;59.346;18.058;2023-04-25T05:55:14;5.97;;;2.92;;
51036;SDS011;37064;59.346;18.058;2023-04-25T05:57:40;3.25;;;1.90;;
51036;SDS011;37064;59.346;18.058;2023-04-25T06:00:08;4.22;;;2.20;;
51036;SDS011;37064;59.346;18.058;2023-04-25T06:02:34;3.28;;;1.60;;
51036;SDS011;37064;59.346;18.058;2023-04-25T06:05:00;2.97;;;1.95;;
51036;SDS011;37064;59.346;18.058;2023-04-25T06:07:28;2.90;;;1.70;;
51036;SDS011;37064;59.346;18.058;2023-04-25T06:09:55;5.32;;;2.20;;
51036;SDS011;37064;59.346;18.058;2023-04-25T06:12:21;3.70;;;1.98;;
51036;SDS011;37064;59.346;18.058;2023-04-25T06:14:47;2.60;;;1.70;;
51036;SDS011;37064;59.346;18.058;2023-04-25T06:17:13;3.95;;;1.73;;
51036;SDS011;37064;59.346;18.058;2023-04-25T06:19:39;4.47;;;2.00;;
51036;SDS011;37064;59.346;18.058;2023-04-25T06:22:05;3.40;;;2.08;;
51036;SDS011;37064;59.346;18.058;2023-04-25T06:24:32;3.17;;;1.80;;
51036;SDS011;37064;59.346;18.058;2023-04-25T06:26:58;2.47;;;1.50;;
51036;SDS011;37064;59.346;18.058;2023-04-25T06:29:24;3.10;;;1.60;;
51036;SDS011;37064;59.346;18.058;2023-04-25T06:31:50;4.40;;;1.55;;
51036;SDS011;37064;59.346;18.058;2023-04-25T06:34:16;3.03;;;1.58;;
51036;SDS011;37064;59.346;18.058;2023-04-25T06:36:42;2.45;;;1.73;;
51036;SDS011;37064;59.346;18.058;2023-04-25T06:39:09;1.95;;;1.13;;
51036;SDS011;37064;59.346;18.058;2023-04-25T06:41:35;3.75;;;1.60;;
51036;SDS011;37064;59.346;18.058;2023-04-25T06:44:01;3.00;;;1.42;;
51036;SDS011;37064;59.346;18.058;2023-04-25T06:46:27;2.50;;;1.33;;
51036;SDS011;37064;59.346;18.058;2023-04-25T06:48:53;2.60;;;1.10;;
51036;SDS011;37064;59.346;18.058;2023-04-25T06:51:20;1.85;;;1.08;;
51036;SDS011;37064;59.346;18.058;2023-04-25T06:53:46;4.97;;;1.70;;
51036;SDS011;37064;59.346;18.058;2023-04-25T06:56:12;2.50;;;1.42;;
51036;SDS011;37064;59.346;18.058;2023-04-25T06:58:38;2.50;;;1.40;;
51036;SDS011;37064;59.346;18.058;2023-04-25T07:01:04;2.00;;;1.20;;
51036;SDS011;37064;59.346;18.058;2023-04-25T07:03:30;1.92;;;1.40;;
51036;SDS011;37064;59.346;18.058;2023-04-25T07:05:56;2.67;;;1.75;;
51036;SDS011;37064;59.346;18.058;2023-04-25T07:08:22;2.45;;;1.48;;
51036;SDS011;37064;59.346;18.058;2023-04-25T07:10:48;2.42;;;1.35;;
51036;SDS011;37064;59.346;18.058;2023-04-25T07:13:14;2.33;;;1.38;;
51036;SDS011;37064;59.346;18.058;2023-04-25T07:15:40;2.28;;;1.40;;
51036;SDS011;37064;59.346;18.058;2023-04-25T07:18:07;2.10;;;1.55;;
51036;SDS011;37064;59.346;18.058;2023-04-25T07:20:33;2.70;;;1.40;;
51036;SDS011;37064;59.346;18.058;2023-04-25T07:22:59;3.38;;;1.52;;
51036;SDS011;37064;59.346;18.058;2023-04-25T07:25:25;5.22;;;1.98;;
51036;SDS011;37064;59.346;18.058;2023-04-25T07:27:51;2.67;;;1.40;;
51036;SDS011;37064;59.346;18.058;2023-04-25T07:30:17;4.55;;;1.60;;
51036;SDS011;37064;59.346;18.058;2023-04-25T07:32:43;2.92;;;1.80;;
51036;SDS011;37064;59.346;18.058;2023-04-25T07:35:10;3.55;;;1.67;;
51036;SDS011;37064;59.346;18.058;2023-04-25T07:37:36;3.97;;;1.92;;
51036;SDS011;37064;59.346;18.058;2023-04-25T07:40:02;3.80;;;1.98;;
51036;SDS011;37064;59.346;18.058;2023-04-25T07:42:29;2.88;;;1.67;;
51036;SDS011;37064;59.346;18.058;2023-04-25T07:44:55;4.53;;;2.45;;
51036;SDS011;37064;59.346;18.058;2023-04-25T07:47:21;3.30;;;1.77;;
51036;SDS011;37064;59.346;18.058;2023-04-25T07:49:47;2.88;;;1.80;;
51036;SDS011;37064;59.346;18.058;2023-04-25T07:52:13;3.58;;;2.28;;
51036;SDS011;37064;59.346;18.058;2023-04-25T07:54:39;3.15;;;2.25;;
51036;SDS011;37064;59.346;18.058;2023-04-25T07:57:05;2.20;;;1.77;;
51036;SDS011;37064;59.346;18.058;2023-04-25T07:59:31;3.80;;;1.70;;
51036;SDS011;37064;59.346;18.058;2023-04-25T08:01:58;4.28;;;1.92;;
51036;SDS011;37064;59.346;18.058;2023-04-25T08:04:24;3.47;;;2.45;;
51036;SDS011;37064;59.346;18.058;2023-04-25T08:06:50;3.80;;;1.98;;
51036;SDS011;37064;59.346;18.058;2023-04-25T08:09:17;2.72;;;1.90;;
51036;SDS011;37064;59.346;18.058;2023-04-25T08:11:43;2.97;;;2.03;;
51036;SDS011;37064;59.346;18.058;2023-04-25T08:14:09;3.05;;;1.67;;
51036;SDS011;37064;59.346;18.058;2023-04-25T08:16:36;3.92;;;2.10;;
51036;SDS011;37064;59.346;18.058;2023-04-25T08:19:02;3.72;;;2.20;;
51036;SDS011;37064;59.346;18.058;2023-04-25T08:21:28;2.72;;;1.88;;
51036;SDS011;37064;59.346;18.058;2023-04-25T08:23:54;3.17;;;2.10;;
51036;SDS011;37064;59.346;18.058;2023-04-25T08:26:21;2.65;;;1.83;;
51036;SDS011;37064;59.346;18.058;2023-04-25T08:28:47;5.10;;;2.20;;
51036;SDS011;37064;59.346;18.058;2023-04-25T08:31:13;3.05;;;2.10;;
51036;SDS011;37064;59.346;18.058;2023-04-25T08:33:39;2.97;;;1.77;;
51036;SDS011;37064;59.346;18.058;2023-04-25T08:36:05;4.75;;;1.90;;
51036;SDS011;37064;59.346;18.058;2023-04-25T08:38:31;2.85;;;1.85;;
51036;SDS011;37064;59.346;18.058;2023-04-25T08:40:57;5.03;;;2.10;;
51036;SDS011;37064;59.346;18.058;2023-04-25T08:43:26;3.22;;;2.20;;
51036;SDS011;37064;59.346;18.058;2023-04-25T08:45:52;5.80;;;2.38;;
51036;SDS011;37064;59.346;18.058;2023-04-25T08:48:19;4.45;;;2.80;;
51036;SDS011;37064;59.346;18.058;2023-04-25T08:50:50;5.28;;;2.90;;
51036;SDS011;37064;59.346;18.058;2023-04-25T08:53:17;3.53;;;2.05;;
51036;SDS011;37064;59.346;18.058;2023-04-25T08:55:45;10.57;;;3.30;;
51036;SDS011;37064;59.346;18.058;2023-04-25T08:58:11;8.73;;;3.08;;
51036;SDS011;37064;59.346;18.058;2023-04-25T09:00:38;6.65;;;4.00;;
51036;SDS011;37064;59.346;18.058;2023-04-25T09:03:04;8.52;;;5.07;;
51036;SDS011;37064;59.346;18.058;2023-04-25T09:05:32;7.47;;;4.78;;
51036;SDS011;37064;59.346;18.058;2023-04-25T09:07:58;11.48;;;5.13;;
51036;SDS011;37064;59.346;18.058;2023-04-25T09:10:25;9.63;;;5.22;;
51036;SDS011;37064;59.346;18.058;2023-04-25T09:13:52;11.68;;;6.70;;
51036;SDS011;37064;59.346;18.058;2023-04-25T09:18:26;9.35;;;5.43;;
51036;SDS011;37064;59.346;18.058;2023-04-25T09:20:53;8.35;;;5.68;;
51036;SDS011;37064;59.346;18.058;2023-04-25T09:23:20;7.93;;;5.35;;
51036;SDS011;37064;59.346;18.058;2023-04-25T09:25:47;12.02;;;5.63;;
51036;SDS011;37064;59.346;18.058;2023-04-25T09:28:13;8.65;;;5.53;;
51036;SDS011;37064;59.346;18.058;2023-04-25T09:30:39;10.07;;;5.25;;
51036;SDS011;37064;59.346;18.058;2023-04-25T09:33:05;9.07;;;5.63;;
51036;SDS011;37064;59.346;18.058;2023-04-25T09:35:35;7.00;;;5.45;;
51036;SDS011;37064;59.346;18.058;2023-04-25T09:38:06;9.75;;;5.65;;
51036;SDS011;37064;59.346;18.058;2023-04-25T09:40:32;9.13;;;5.25;;
51036;SDS011;37064;59.346;18.058;2023-04-25T09:42:58;9.80;;;5.10;;
51036;SDS011;37064;59.346;18.058;2023-04-25T09:45:24;11.18;;;6.38;;
51036;SDS011;37064;59.346;18.058;2023-04-25T09:47:50;9.73;;;5.30;;
51036;SDS011;37064;59.346;18.058;2023-04-25T09:50:22;8.30;;;5.47;;
51036;SDS011;37064;59.346;18.058;2023-04-25T09:53:02;8.27;;;5.32;;
51036;SDS011;37064;59.346;18.058;2023-04-25T09:55:30;7.75;;;5.55;;
51036;SDS011;37064;59.346;18.058;2023-04-25T09:57:57;6.53;;;4.43;;
51036;SDS011;37064;59.346;18.058;2023-04-25T10:00:27;6.43;;;4.30;;
51036;SDS011;37064;59.346;18.058;2023-04-25T10:02:53;8.73;;;4.43;;
51036;SDS011;37064;59.346;18.058;2023-04-25T10:05:20;12.13;;;4.85;;
51036;SDS011;37064;59.346;18.058;2023-04-25T10:07:47;7.75;;;4.43;;
51036;SDS011;37064;59.346;18.058;2023-04-25T10:10:13;7.45;;;4.20;;
51036;SDS011;37064;59.346;18.058;2023-04-25T10:12:39;7.18;;;4.80;;
51036;SDS011;37064;59.346;18.058;2023-04-25T10:15:07;6.18;;;4.50;;
51036;SDS011;37064;59.346;18.058;2023-04-25T10:17:34;7.05;;;3.63;;
51036;SDS011;37064;59.346;18.058;2023-04-25T10:20:03;7.22;;;4.00;;
51036;SDS011;37064;59.346;18.058;2023-04-25T10:22:34;8.43;;;4.97;;
51036;SDS011;37064;59.346;18.058;2023-04-25T10:25:01;10.48;;;5.47;;
51036;SDS011;37064;59.346;18.058;2023-04-25T10:27:29;7.43;;;4.85;;
51036;SDS011;37064;59.346;18.058;2023-04-25T10:30:02;8.18;;;5.38;;
51036;SDS011;37064;59.346;18.058;2023-04-25T10:32:30;6.95;;;5.05;;
51036;SDS011;37064;59.346;18.058;2023-04-25T10:34:57;8.43;;;5.00;;
51036;SDS011;37064;59.346;18.058;2023-04-25T10:37:23;10.13;;;6.00;;
51036;SDS011;37064;59.346;18.058;2023-04-25T10:39:50;6.72;;;5.35;;
51036;SDS011;37064;59.346;18.058;2023-04-25T10:42:18;8.13;;;5.22;;
51036;SDS011;37064;59.346;18.058;2023-04-25T10:45:00;9.40;;;5.90;;
51036;SDS011;37064;59.346;18.058;2023-04-25T10:47:34;9.40;;;5.45;;
51036;SDS011;37064;59.346;18.058;2023-04-25T10:50:05;13.18;;;5.63;;
51036;SDS011;37064;59.346;18.058;2023-04-25T10:52:32;9.93;;;6.00;;
51036;SDS011;37064;59.346;18.058;2023-04-25T10:54:58;14.30;;;5.22;;
51036;SDS011;37064;59.346;18.058;2023-04-25T10:57:41;7.53;;;4.82;;
51036;SDS011;37064;59.346;18.058;2023-04-25T11:00:10;8.35;;;5.38;;
51036;SDS011;37064;59.346;18.058;2023-04-25T11:02:37;8.88;;;5.40;;
51036;SDS011;37064;59.346;18.058;2023-04-25T11:05:03;9.77;;;5.00;;
51036;SDS011;37064;59.346;18.058;2023-04-25T11:09:56;9.60;;;5.50;;
51036;SDS011;37064;59.346;18.058;2023-04-25T11:12:22;7.38;;;4.60;;
51036;SDS011;37064;59.346;18.058;2023-04-25T11:14:50;8.90;;;4.93;;
51036;SDS011;37064;59.346;18.058;2023-04-25T11:17:16;9.80;;;5.63;;
51036;SDS011;37064;59.346;18.058;2023-04-25T11:19:43;9.63;;;5.05;;
51036;SDS011;37064;59.346;18.058;2023-04-25T11:22:09;10.70;;;5.63;;
51036;SDS011;37064;59.346;18.058;2023-04-25T11:24:36;8.93;;;5.22;;
51036;SDS011;37064;59.346;18.058;2023-04-25T11:27:02;10.80;;;5.88;;
51036;SDS011;37064;59.346;18.058;2023-04-25T11:29:29;17.27;;;6.22;;
51036;SDS011;37064;59.346;18.058;2023-04-25T11:31:56;10.02;;;5.90;;
51036;SDS011;37064;59.346;18.058;2023-04-25T11:34:26;16.58;;;5.95;;
51036;SDS011;37064;59.346;18.058;2023-04-25T11:36:52;9.00;;;5.90;;
51036;SDS011;37064;59.346;18.058;2023-04-25T11:39:18;11.32;;;5.82;;
51036;SDS011;37064;59.346;18.058;2023-04-25T11:41:45;9.27;;;5.65;;
51036;SDS011;37064;59.346;18.058;2023-04-25T11:44:11;7.07;;;4.57;;
51036;SDS011;37064;59.346;18.058;2023-04-25T11:46:37;8.48;;;4.97;;
51036;SDS011;37064;59.346;18.058;2023-04-25T11:49:03;7.13;;;5.28;;
51036;SDS011;37064;59.346;18.058;2023-04-25T11:51:29;9.15;;;4.60;;
51036;SDS011;37064;59.346;18.058;2023-04-25T11:53:56;8.55;;;4.75;;
51036;SDS011;37064;59.346;18.058;2023-04-25T11:56:22;7.68;;;4.65;;
51036;SDS011;37064;59.346;18.058;2023-04-25T11:58:55;8.05;;;5.07;;
51036;SDS011;37064;59.346;18.058;2023-04-25T12:01:31;11.13;;;5.07;;
51036;SDS011;37064;59.346;18.058;2023-04-25T12:03:58;15.95;;;5.32;;
51036;SDS011;37064;59.346;18.058;2023-04-25T12:06:28;11.52;;;5.22;;
51036;SDS011;37064;59.346;18.058;2023-04-25T12:09:03;10.15;;;5.82;;
51036;SDS011;37064;59.346;18.058;2023-04-25T12:11:30;10.85;;;5.60;;
51036;SDS011;37064;59.346;18.058;2023-04-25T12:16:25;13.90;;;4.95;;
51036;SDS011;37064;59.346;18.058;2023-04-25T12:18:51;7.03;;;5.13;;
51036;SDS011;37064;59.346;18.058;2023-04-25T12:21:20;8.95;;;4.47;;
51036;SDS011;37064;59.346;18.058;2023-04-25T12:23:46;11.93;;;4.35;;
51036;SDS011;37064;59.346;18.058;2023-04-25T12:26:12;8.13;;;4.47;;
51036;SDS011;37064;59.346;18.058;2023-04-25T12:28:38;6.93;;;4.68;;
51036;SDS011;37064;59.346;18.058;2023-04-25T12:31:04;9.73;;;4.63;;
51036;SDS011;37064;59.346;18.058;2023-04-25T12:33:31;8.35;;;4.38;;
51036;SDS011;37064;59.346;18.058;2023-04-25T12:35:58;9.05;;;4.68;;
51036;SDS011;37064;59.346;18.058;2023-04-25T12:38:25;7.10;;;4.22;;
51036;SDS011;37064;59.346;18.058;2023-04-25T12:40:52;11.50;;;4.90;;
51036;SDS011;37064;59.346;18.058;2023-04-25T12:43:18;9.52;;;4.00;;
51036;SDS011;37064;59.346;18.058;2023-04-25T12:45:47;8.63;;;4.32;;
51036;SDS011;37064;59.346;18.058;2023-04-25T12:48:13;17.83;;;5.80;;
51036;SDS011;37064;59.346;18.058;2023-04-25T12:50:39;12.57;;;3.55;;
51036;SDS011;37064;59.346;18.058;2023-04-25T12:53:06;7.20;;;4.25;;
51036;SDS011;37064;59.346;18.058;2023-04-25T12:55:32;10.30;;;4.22;;
51036;SDS011;37064;59.346;18.058;2023-04-25T12:57:58;8.43;;;4.53;;
51036;SDS011;37064;59.346;18.058;2023-04-25T13:00:24;8.35;;;3.40;;
51036;SDS011;37064;59.346;18.058;2023-04-25T13:02:51;11.73;;;4.15;;
51036;SDS011;37064;59.346;18.058;2023-04-25T13:05:17;11.95;;;4.60;;
51036;SDS011;37064;59.346;18.058;2023-04-25T13:07:43;7.97;;;3.90;;
51036;SDS011;37064;59.346;18.058;2023-04-25T13:10:09;5.75;;;3.22;;
51036;SDS011;37064;59.346;18.058;2023-04-25T13:12:35;8.27;;;4.07;;
51036;SDS011;37064;59.346;18.058;2023-04-25T13:15:01;7.43;;;4.53;;
51036;SDS011;37064;59.346;18.058;2023-04-25T13:17:27;8.27;;;4.13;;
51036;SDS011;37064;59.346;18.058;2023-04-25T13:19:53;7.43;;;3.88;;
51036;SDS011;37064;59.346;18.058;2023-04-25T13:22:19;8.93;;;3.70;;
51036;SDS011;37064;59.346;18.058;2023-04-25T13:24:45;5.25;;;3.83;;
51036;SDS011;37064;59.346;18.058;2023-04-25T13:27:12;8.13;;;3.50;;
51036;SDS011;37064;59.346;18.058;2023-04-25T13:29:38;9.23;;;3.65;;
51036;SDS011;37064;59.346;18.058;2023-04-25T13:32:05;6.20;;;4.13;;
51036;SDS011;37064;59.346;18.058;2023-04-25T13:34:31;6.07;;;2.83;;
51036;SDS011;37064;59.346;18.058;2023-04-25T13:36:58;5.30;;;3.08;;
51036;SDS011;37064;59.346;18.058;2023-04-25T13:39:24;4.82;;;3.10;;
51036;SDS011;37064;59.346;18.058;2023-04-25T13:41:50;6.63;;;3.13;;
51036;SDS011;37064;59.346;18.058;2023-04-25T13:44:16;6.13;;;2.95;;
51036;SDS011;37064;59.346;18.058;2023-04-25T13:46:42;5.22;;;2.97;;
51036;SDS011;37064;59.346;18.058;2023-04-25T13:49:08;5.80;;;3.42;;
51036;SDS011;37064;59.346;18.058;2023-04-25T13:51:34;5.32;;;3.20;;
51036;SDS011;37064;59.346;18.058;2023-04-25T13:54:00;8.32;;;3.85;;
51036;SDS011;37064;59.346;18.058;2023-04-25T13:56:27;6.82;;;3.72;;
51036;SDS011;37064;59.346;18.058;2023-04-25T13:58:53;6.85;;;4.00;;
51036;SDS011;37064;59.346;18.058;2023-04-25T14:01:19;9.90;;;4.28;;
51036;SDS011;37064;59.346;18.058;2023-04-25T14:03:46;9.38;;;4.38;;
51036;SDS011;37064;59.346;18.058;2023-04-25T14:06:12;7.30;;;4.40;;
51036;SDS011;37064;59.346;18.058;2023-04-25T14:08:38;8.38;;;5.38;;
51036;SDS011;37064;59.346;18.058;2023-04-25T14:11:05;10.05;;;4.45;;
51036;SDS011;37064;59.346;18.058;2023-04-25T14:13:31;7.63;;;4.40;;
51036;SDS011;37064;59.346;18.058;2023-04-25T14:15:57;9.90;;;4.93;;
51036;SDS011;37064;59.346;18.058;2023-04-25T14:18:23;9.55;;;4.93;;
51036;SDS011;37064;59.346;18.058;2023-04-25T14:20:49;10.77;;;5.07;;
51036;SDS011;37064;59.346;18.058;2023-04-25T14:23:15;9.02;;;4.35;;
51036;SDS011;37064;59.346;18.058;2023-04-25T14:25:42;10.40;;;4.95;;
51036;SDS011;37064;59.346;18.058;2023-04-25T14:28:09;11.15;;;5.88;;
51036;SDS011;37064;59.346;18.058;2023-04-25T14:30:35;7.18;;;4.60;;
51036;SDS011;37064;59.346;18.058;2023-04-25T14:33:01;6.90;;;4.22;;
51036;SDS011;37064;59.346;18.058;2023-04-25T14:35:27;7.85;;;4.75;;
51036;SDS011;37064;59.346;18.058;2023-04-25T14:37:53;9.55;;;6.00;;